Latest  Newer  Older  Last 2 hours animation  Current image  Latest image 
Rain/snow radar  Infrared sat images 
Real-time lightning map

All time is UTC (add 2 hours to UTC in wintertime, 3 hours to UTC in DST for Latvia local time)

2020/08/11 02:50 EVRA 110250Z 00000KT CAVOK 10/10 Q1022 NOSIG
2020/08/11 02:50 EVLA 110250Z AUTO 01001KT 9999 BR NCD 11/11 Q1023
2020/08/11 02:50 EVVA 110250Z AUTO 01005KT CAVOK 15/14 Q1023
2020/08/11 02:50 EYKA 110250Z 34003KT 300V020 CAVOK 13/10 Q1020
2020/08/11 02:50 EYPA 110250Z 05006KT CAVOK 13/12 Q1023
2020/08/11 02:50 EYSA 110250Z 35007KT CAVOK 12/10 Q1022 BLU NOSIG
2020/08/11 02:50 EYVI 110250Z 01005KT CAVOK 13/11 Q1019 NOSIG
2020/08/11 02:50 EEKA 110250Z 07004KT 030V100 CAVOK 18/13 Q1023
2020/08/11 02:50 EEKE 110250Z AUTO 36005KT 9999NDV NCD 12/11 Q1023
2020/08/10 12:50 EEPU 101250Z 36010KT 9999 SCT049 23/10 Q1019
2020/08/11 02:50 EETN 110250Z 03005KT CAVOK 15/10 Q1023
2020/08/11 02:50 EETU 110250Z AUTO 30005KT 9999 NCD 11/09 Q1021
   RIGA AIRPORT     EVRA               56 55N  023 58E   10   X     T          6 LV
   LIEPAJA INTL     EVLA        26406  56 31N  021 06E    4   X                8 LV
   VENTPILS         EVVA               57 21N  021 33E    6   X                8 LV
   KAUNAS           EYKA               54 54N  023 55E   77   X     T          6 LT
   PALANGA INTL     EYPA               55 55N  021 03E   10   X                6 LT
   SIAULIAI INTL    EYSA               55 54N  023 24E  135   X     T          6 LT
   VILNIUS INTL     EYVI        26730  54 38N  025 17E  197   X     T          6 LT
   KARDLA           EEKA        26116  58 59N  022 50E    4   X                8 EE
   KURESSAARE       EEKE               58 14N  022 31E    4   X                8 EE
   PARNU            EEPU               58 25N  024 28E   14   X                8 EE
   TALLINN          EETN        26038  59 24N  024 49E   40   X     T          8 EE
   TARTU            EETU               58 19N  026 41E   67   X                8 EE

cloud coverage image from sat24.com and METAR data from weather.noaa.gov